Terminal Aerodrome Forecast
Issued by NWS Goodland, KS

Home | Current Version | Previous Version | Text Only | Print | Product List | Glossary On
Versions: 1 2 3 4 5 6 7 8 9 10 11 12
000
FTUS43 KGLD 251120
TAFGLD
TAF
KGLD 251120Z 2512/2612 31012G20KT P6SM SKC
     FM251400 32020G30KT P6SM SKC
     FM251700 35025G35KT P6SM FEW250
     FM252200 35015G25KT P6SM SCT250
     FM260000 30011KT P6SM SCT080 SCT250=

USA.gov is the U.S. government's official web portal to all federal, state and local government web resources and services.